createdAt,value
2023-03-30T00:01:15.264Z,0
2023-03-30T00:04:40.241Z,0
2023-03-30T00:08:05.497Z,0
2023-03-30T00:11:30.766Z,0
2023-03-30T00:14:56.003Z,0
2023-03-30T00:18:21.230Z,0
2023-03-30T00:21:46.477Z,0
2023-03-30T00:25:11.712Z,0
2023-03-30T00:28:36.966Z,0
2023-03-30T00:32:02.255Z,0
2023-03-30T00:35:27.442Z,0
2023-03-30T00:38:52.680Z,0
2023-03-30T00:42:17.949Z,0
2023-03-30T00:45:43.173Z,0
2023-03-30T00:49:09.348Z,0
2023-03-30T00:52:34.566Z,0
2023-03-30T00:55:59.809Z,0
2023-03-30T00:59:25.060Z,0
2023-03-30T01:02:50.348Z,0
2023-03-30T01:06:15.626Z,0
2023-03-30T01:09:40.861Z,0
2023-03-30T01:13:06.141Z,0
2023-03-30T01:16:31.363Z,0
2023-03-30T01:19:56.620Z,0
2023-03-30T01:23:21.903Z,0
2023-03-30T01:26:47.110Z,0
2023-03-30T01:30:12.326Z,0
2023-03-30T01:33:37.572Z,0
2023-03-30T01:37:02.817Z,0
2023-03-30T01:40:28.084Z,0
2023-03-30T01:43:53.323Z,0
2023-03-30T01:47:18.588Z,0
2023-03-30T01:50:43.840Z,0
2023-03-30T01:54:09.095Z,0
2023-03-30T01:57:34.386Z,0
2023-03-30T02:00:59.644Z,0
2023-03-30T02:04:24.917Z,0
2023-03-30T02:07:50.194Z,0
2023-03-30T02:11:15.436Z,0
2023-03-30T02:14:40.716Z,0
2023-03-30T02:18:05.998Z,0
2023-03-30T02:21:31.232Z,0
2023-03-30T02:24:56.490Z,0
2023-03-30T02:28:21.723Z,0
2023-03-30T02:31:47.099Z,0
2023-03-30T02:35:12.194Z,0
2023-03-30T02:38:37.444Z,0
2023-03-30T02:42:02.708Z,0
2023-03-30T02:45:27.984Z,0
2023-03-30T02:48:53.258Z,0
2023-03-30T02:52:18.483Z,0
2023-03-30T02:55:43.716Z,0
2023-03-30T02:59:08.964Z,0
2023-03-30T03:02:34.320Z,0
2023-03-30T03:05:59.521Z,0
2023-03-30T03:09:24.727Z,0
2023-03-30T03:12:49.972Z,0
2023-03-30T03:16:15.220Z,0
2023-03-30T03:19:40.474Z,0
2023-03-30T03:23:05.719Z,0
2023-03-30T03:26:30.900Z,0
2023-03-30T03:29:56.107Z,0
2023-03-30T03:33:21.347Z,0
2023-03-30T03:36:46.554Z,0
2023-03-30T03:40:11.784Z,0
2023-03-30T03:43:36.942Z,0
2023-03-30T03:47:02.185Z,0
2023-03-30T03:50:27.382Z,0
2023-03-30T03:53:52.593Z,0
2023-03-30T03:57:17.814Z,0
2023-03-30T04:00:42.977Z,0
2023-03-30T04:04:08.210Z,0
2023-03-30T04:07:33.458Z,0
2023-03-30T04:10:58.659Z,0
2023-03-30T04:14:23.859Z,0
2023-03-30T04:17:49.018Z,0
2023-03-30T04:21:14.200Z,0
2023-03-30T04:24:39.470Z,0
2023-03-30T04:28:04.658Z,0
2023-03-30T04:31:29.933Z,0
2023-03-30T04:34:55.036Z,0
2023-03-30T04:38:20.210Z,0
2023-03-30T04:41:45.388Z,0
2023-03-30T04:45:10.573Z,0
2023-03-30T04:48:35.755Z,0
2023-03-30T04:52:00.911Z,0
2023-03-30T04:55:26.138Z,0
2023-03-30T04:58:51.402Z,0
2023-03-30T05:02:16.675Z,0
2023-03-30T05:05:41.841Z,0
2023-03-30T05:09:07.016Z,0
2023-03-30T05:12:32.201Z,0
2023-03-30T05:15:57.390Z,0
2023-03-30T05:19:22.590Z,0
2023-03-30T05:22:47.844Z,0
2023-03-30T05:26:13.036Z,0
2023-03-30T05:29:38.201Z,0
2023-03-30T05:33:03.444Z,0
2023-03-30T05:36:28.626Z,0
2023-03-30T05:39:53.905Z,0
2023-03-30T05:43:19.135Z,0
2023-03-30T05:46:44.465Z,0
2023-03-30T05:50:09.742Z,0
2023-03-30T05:53:35.211Z,0
2023-03-30T05:57:00.531Z,6
2023-03-30T06:00:25.788Z,0
2023-03-30T06:03:51.130Z,0
2023-03-30T06:07:16.374Z,0
2023-03-30T06:10:41.682Z,6
2023-03-30T06:14:06.962Z,6
2023-03-30T06:17:32.286Z,6
2023-03-30T06:20:58.433Z,6
2023-03-30T06:24:23.697Z,6
2023-03-30T06:27:48.967Z,11
2023-03-30T06:31:14.305Z,11
2023-03-30T06:34:39.571Z,11
2023-03-30T06:38:04.957Z,17
2023-03-30T06:41:30.224Z,6
2023-03-30T06:44:55.563Z,6
2023-03-30T06:48:20.865Z,11
2023-03-30T06:51:46.154Z,6
2023-03-30T06:55:11.436Z,11
2023-03-30T06:58:36.713Z,17
2023-03-30T07:02:02.066Z,6
2023-03-30T07:05:27.345Z,6
2023-03-30T07:08:52.687Z,6
2023-03-30T07:12:18.147Z,11
2023-03-30T07:15:43.721Z,11
2023-03-30T07:19:09.190Z,11
2023-03-30T07:22:35.171Z,6
2023-03-30T07:26:01.002Z,6
2023-03-30T07:29:26.789Z,11
2023-03-30T07:32:52.370Z,11
2023-03-30T07:36:17.997Z,17
2023-03-30T07:39:43.747Z,11
2023-03-30T07:43:09.543Z,6
2023-03-30T07:46:35.434Z,6
2023-03-30T07:50:01.303Z,6
2023-03-30T07:53:27.062Z,0
2023-03-30T07:56:52.923Z,0
2023-03-30T08:00:18.568Z,0
2023-03-30T08:03:44.318Z,0
2023-03-30T08:07:10.032Z,0
2023-03-30T08:10:35.817Z,0
2023-03-30T08:14:01.573Z,0
2023-03-30T08:17:27.190Z,0
2023-03-30T08:20:52.805Z,0
2023-03-30T08:24:18.413Z,0
2023-03-30T08:27:43.827Z,0
2023-03-30T08:31:09.203Z,6
2023-03-30T08:34:36.131Z,6
2023-03-30T08:38:00.067Z,6
2023-03-30T08:41:25.546Z,6
2023-03-30T08:44:50.988Z,6
2023-03-30T08:48:16.285Z,6
2023-03-30T08:51:41.485Z,6
2023-03-30T08:55:06.750Z,6
2023-03-30T08:58:32.005Z,6
2023-03-30T09:01:57.280Z,6
2023-03-30T09:05:22.718Z,6
2023-03-30T09:08:47.754Z,6
2023-03-30T09:12:12.982Z,0
2023-03-30T09:15:38.202Z,6
2023-03-30T09:19:03.402Z,6
2023-03-30T09:22:28.662Z,11
2023-03-30T09:25:53.844Z,17
2023-03-30T09:29:19.054Z,17
2023-03-30T09:32:44.319Z,28
2023-03-30T09:36:09.524Z,28
2023-03-30T09:39:34.848Z,23
2023-03-30T09:43:00.113Z,28
2023-03-30T09:46:25.364Z,28
2023-03-30T09:49:50.668Z,39
2023-03-30T09:53:15.930Z,23
2023-03-30T09:56:42.140Z,11
2023-03-30T10:00:06.418Z,17
2023-03-30T10:03:31.791Z,34
2023-03-30T10:07:00.408Z,28
2023-03-30T10:10:22.196Z,23
2023-03-30T10:13:47.444Z,39
2023-03-30T10:17:12.659Z,34
2023-03-30T10:20:37.914Z,34
2023-03-30T10:24:03.150Z,34
2023-03-30T10:27:28.428Z,62
2023-03-30T10:30:53.678Z,39
2023-03-30T10:34:18.899Z,96
2023-03-30T10:37:44.659Z,45
2023-03-30T10:41:09.889Z,51
2023-03-30T10:44:35.149Z,39
2023-03-30T10:48:00.594Z,51
2023-03-30T10:51:25.575Z,45
2023-03-30T10:54:50.807Z,51
2023-03-30T10:58:16.067Z,39
2023-03-30T11:01:41.313Z,45
2023-03-30T11:05:06.575Z,34
2023-03-30T11:08:31.830Z,39
2023-03-30T11:11:57.135Z,17
2023-03-30T11:15:22.419Z,11
2023-03-30T11:18:47.744Z,39
2023-03-30T11:22:13.060Z,23
2023-03-30T11:25:38.361Z,23
2023-03-30T11:29:03.706Z,28
2023-03-30T11:32:29.045Z,28
2023-03-30T11:35:54.333Z,34
2023-03-30T11:39:31.423Z,39
2023-03-30T11:42:44.908Z,51
2023-03-30T11:46:10.600Z,90
2023-03-30T11:49:35.569Z,62
2023-03-30T11:53:00.908Z,56
2023-03-30T11:56:26.297Z,39
2023-03-30T11:59:51.545Z,34
2023-03-30T12:03:16.931Z,34
2023-03-30T12:06:42.185Z,84
2023-03-30T12:10:08.339Z,51
2023-03-30T12:13:41.232Z,39
2023-03-30T12:16:58.201Z,45
2023-03-30T12:20:23.574Z,45
2023-03-30T12:23:48.879Z,28
2023-03-30T12:27:14.134Z,34
2023-03-30T12:30:39.428Z,34
2023-03-30T12:34:04.717Z,39
2023-03-30T12:37:29.993Z,39
2023-03-30T12:40:55.306Z,45
2023-03-30T12:44:20.665Z,56
2023-03-30T12:47:46.020Z,39
2023-03-30T12:51:11.303Z,68
2023-03-30T12:54:36.655Z,39
2023-03-30T12:58:02.010Z,45
2023-03-30T13:01:27.389Z,28
2023-03-30T13:04:52.829Z,34
2023-03-30T13:08:18.031Z,28
2023-03-30T13:11:43.370Z,28
2023-03-30T13:15:08.747Z,51
2023-03-30T13:18:34.100Z,28
2023-03-30T13:21:59.510Z,34
2023-03-30T13:25:24.816Z,34
2023-03-30T13:28:50.295Z,73
2023-03-30T13:32:15.697Z,68
2023-03-30T13:35:41.128Z,56
2023-03-30T13:39:06.461Z,73
2023-03-30T13:42:31.920Z,68
2023-03-30T13:46:05.769Z,56
2023-03-30T13:49:22.886Z,51
2023-03-30T13:52:48.232Z,68
2023-03-30T13:56:13.637Z,28
2023-03-30T13:59:39.123Z,28
2023-03-30T14:03:04.510Z,23
2023-03-30T14:06:29.928Z,34
2023-03-30T14:09:55.301Z,23
2023-03-30T14:13:20.728Z,11
2023-03-30T14:16:46.102Z,39
2023-03-30T14:20:11.498Z,56
2023-03-30T14:23:36.891Z,23
2023-03-30T14:27:02.282Z,11
2023-03-30T14:30:27.649Z,39
2023-03-30T14:33:52.982Z,23
2023-03-30T14:37:20.585Z,23
2023-03-30T14:40:43.768Z,17
2023-03-30T14:44:09.118Z,11
2023-03-30T14:47:34.538Z,6
2023-03-30T14:50:59.825Z,0
2023-03-30T14:54:25.163Z,0
2023-03-30T14:57:50.487Z,0
2023-03-30T15:01:15.824Z,0
2023-03-30T15:04:41.193Z,0
2023-03-30T15:42:18.233Z,6
2023-03-30T15:45:43.203Z,11
2023-03-30T15:49:08.537Z,11
2023-03-30T15:52:33.823Z,6
2023-03-30T15:55:59.074Z,6
2023-03-30T15:59:24.344Z,6
2023-03-30T16:02:49.655Z,6
2023-03-30T16:06:14.893Z,6
2023-03-30T16:09:40.138Z,6
2023-03-30T16:13:05.390Z,6
2023-03-30T16:16:30.684Z,6
2023-03-30T16:19:55.928Z,6
2023-03-30T16:23:21.239Z,11
2023-03-30T16:26:46.531Z,6
2023-03-30T16:30:11.835Z,11
2023-03-30T16:33:37.181Z,11
2023-03-30T16:37:02.433Z,17
2023-03-30T16:40:27.689Z,11
2023-03-30T16:43:52.978Z,11
2023-03-30T16:47:18.581Z,11
2023-03-30T16:50:43.836Z,11
2023-03-30T16:54:16.488Z,6
2023-03-30T16:57:34.718Z,6
2023-03-30T17:01:00.180Z,6
2023-03-30T17:04:26.107Z,0
2023-03-30T17:07:52.177Z,0
2023-03-30T17:11:18.155Z,0
2023-03-30T17:14:44.162Z,0
2023-03-30T17:18:10.277Z,0
2023-03-30T17:21:36.159Z,0
2023-03-30T17:25:02.200Z,0
2023-03-30T17:28:29.244Z,0
2023-03-30T17:31:55.067Z,0
2023-03-30T17:35:20.985Z,0
2023-03-30T17:38:46.629Z,0
2023-03-30T17:42:12.281Z,0
2023-03-30T17:45:38.137Z,0
2023-03-30T17:49:04.166Z,0
2023-03-30T17:52:30.054Z,0
2023-03-30T17:55:55.469Z,0
2023-03-30T17:59:20.783Z,0
2023-03-30T18:02:46.172Z,0
2023-03-30T18:06:11.567Z,0
2023-03-30T18:09:37.374Z,0
2023-03-30T18:13:03.293Z,0
2023-03-30T18:16:29.309Z,0
2023-03-30T18:19:55.120Z,0
2023-03-30T18:23:20.707Z,0
2023-03-30T18:26:46.313Z,0
2023-03-30T18:30:11.911Z,0
2023-03-30T18:33:37.504Z,0
2023-03-30T18:37:03.589Z,0
2023-03-30T18:40:31.371Z,0
2023-03-30T18:43:55.596Z,0
2023-03-30T18:47:21.488Z,0
2023-03-30T18:50:47.322Z,0
2023-03-30T18:54:13.138Z,0
2023-03-30T18:57:39.090Z,0
2023-03-30T19:01:05.049Z,0
2023-03-30T19:04:30.961Z,0
2023-03-30T19:07:56.963Z,0
2023-03-30T19:11:22.786Z,0
2023-03-30T19:14:48.626Z,0
2023-03-30T19:18:14.508Z,0
2023-03-30T19:21:40.319Z,0
2023-03-30T19:25:06.233Z,0
2023-03-30T19:28:32.109Z,0
2023-03-30T19:31:57.942Z,0
2023-03-30T19:35:23.889Z,0
2023-03-30T19:38:49.740Z,0
2023-03-30T19:42:15.554Z,0
2023-03-30T19:45:41.237Z,0
2023-03-30T19:49:06.823Z,0
2023-03-30T19:52:32.437Z,0
2023-03-30T19:55:57.807Z,0
2023-03-30T19:59:23.244Z,0
2023-03-30T20:02:48.656Z,0
2023-03-30T20:06:13.921Z,0
2023-03-30T20:09:39.295Z,0
2023-03-30T20:13:04.619Z,0
2023-03-30T20:16:30.090Z,0
2023-03-30T20:19:55.341Z,0
2023-03-30T20:23:20.691Z,0
2023-03-30T20:26:46.046Z,0
2023-03-30T20:30:11.386Z,0
2023-03-30T20:33:36.789Z,0
2023-03-30T20:37:02.104Z,0
2023-03-30T20:40:27.502Z,0
2023-03-30T20:43:56.181Z,0
2023-03-30T20:47:18.208Z,0
2023-03-30T20:50:43.637Z,0
2023-03-30T20:54:08.943Z,0
2023-03-30T20:57:34.290Z,0
2023-03-30T21:00:59.671Z,0
2023-03-30T21:04:25.063Z,0
2023-03-30T21:07:50.466Z,0
2023-03-30T21:11:15.756Z,0
2023-03-30T21:14:41.107Z,0
2023-03-30T21:18:06.480Z,0
2023-03-30T21:21:31.802Z,0
2023-03-30T21:24:57.182Z,0
2023-03-30T21:28:22.583Z,0
2023-03-30T21:31:47.961Z,0
2023-03-30T21:35:13.322Z,0
2023-03-30T21:38:38.715Z,0
2023-03-30T21:42:04.127Z,0
2023-03-30T21:45:29.461Z,0
2023-03-30T21:48:54.867Z,0
2023-03-30T21:52:20.211Z,0
2023-03-30T21:55:45.594Z,0
2023-03-30T21:59:10.998Z,0
2023-03-30T22:02:36.352Z,0
2023-03-30T22:06:01.661Z,0
2023-03-30T22:09:27.029Z,0
2023-03-30T22:12:52.376Z,0
2023-03-30T22:16:17.734Z,0
2023-03-30T22:19:43.057Z,0
2023-03-30T22:23:08.413Z,0
2023-03-30T22:26:33.752Z,0
2023-03-30T22:29:59.063Z,0
2023-03-30T22:33:24.426Z,0
2023-03-30T22:36:49.722Z,0
2023-03-30T22:40:15.061Z,0
2023-03-30T22:43:40.398Z,0
2023-03-30T22:47:05.742Z,0
2023-03-30T22:50:31.148Z,0
2023-03-30T22:53:56.454Z,0
2023-03-30T22:57:21.834Z,0
2023-03-30T23:00:47.129Z,0
2023-03-30T23:04:12.499Z,0
2023-03-30T23:07:37.880Z,0
2023-03-30T23:11:03.181Z,0
2023-03-30T23:14:28.497Z,0
2023-03-30T23:17:53.845Z,0
2023-03-30T23:21:19.141Z,0
2023-03-30T23:24:44.523Z,0
2023-03-30T23:28:09.860Z,0
2023-03-30T23:31:35.247Z,0
2023-03-30T23:35:00.597Z,0
2023-03-30T23:38:25.972Z,0
2023-03-30T23:41:51.340Z,0
2023-03-30T23:45:16.697Z,0
2023-03-30T23:48:42.088Z,0
2023-03-30T23:52:07.434Z,0
2023-03-30T23:55:32.773Z,0
2023-03-30T23:58:58.129Z,0
